Shinko Maru No.21 — JD3742 — position and weather

sailwx.info

Track history (hours):
 
Tides and Currents Weather Stations Pressure Air Temp Water Temp Dewpoint Dewpoint Depression Visibility Wind Speed Wind Dir Waves Ship Positions

Shinko Maru No.21

Last reported at 2018-Feb-20 03:42 UTC. Time now 2018-Feb-20 05:30 UTC.
Position N 34°58' E 140°06'.

Length 75 m; draft 4.5 m.

Type: Cargo ship. MMSI: 431005668.

Date/timePositionNaut miles runAvg speedWind from/ knotsBaromVisibWave heightAir tempDewpointWater temp
2018-Feb-20 03:42N 34°58' E 140°06'39410.9
2018-Feb-18 15:32N 41°26' E 141°32'512.7
2018-Feb-18 15:09N 41°31' E 141°30'412.5
2018-Feb-18 14:48N 41°35' E 141°26'311.3
2018-Feb-18 14:30N 41°37' E 141°24'611.4
2018-Feb-18 14:00N 41°43' E 141°20'711.9
2018-Feb-18 13:27N 41°48' E 141°16'4 0.1
2018-Feb-16 19:19N 41°50' E 141°12'511.7
2018-Feb-16 18:52N 41°45' E 141°10'512.5
2018-Feb-16 18:26N 41°41' E 141°04'614.1
2018-Feb-16 18:00N 41°38' E 140°58'815.3
2018-Feb-16 17:31N 41°33' E 140°49'714.3
2018-Feb-16 17:00N 41°29' E 140°42'714.1
2018-Feb-16 16:30N 41°26' E 140°34'714.8
2018-Feb-16 16:00N 41°21' E 140°26'2713.8
2018-Feb-16 14:04N 40°60' E 140°05'813.4
2018-Feb-16 13:29N 40°53' E 139°60'  
Track history (hours):
 
Tides and Currents Weather Stations Pressure Air Temp Water Temp Dewpoint Dewpoint Depression Visibility Wind Speed Wind Dir Waves Ship Positions

Shinko Maru No.21

Last reported at 2018-Feb-20 03:42 UTC. Time now 2018-Feb-20 05:30 UTC.
Position N 34°58' E 140°06'.

Length 75 m; draft 4.5 m.

Type: Cargo ship. MMSI: 431005668.

Date/timePositionNaut miles runAvg speedWind from/ knotsBaromVisibWave heightAir tempDewpointWater temp
2018-Feb-20 03:42N 34°58' E 140°06'39410.9
2018-Feb-18 15:32N 41°26' E 141°32'512.7
2018-Feb-18 15:09N 41°31' E 141°30'412.5
2018-Feb-18 14:48N 41°35' E 141°26'311.3
2018-Feb-18 14:30N 41°37' E 141°24'611.4
2018-Feb-18 14:00N 41°43' E 141°20'711.9
2018-Feb-18 13:27N 41°48' E 141°16'4 0.1
2018-Feb-16 19:19N 41°50' E 141°12'511.7
2018-Feb-16 18:52N 41°45' E 141°10'512.5
2018-Feb-16 18:26N 41°41' E 141°04'614.1
2018-Feb-16 18:00N 41°38' E 140°58'815.3
2018-Feb-16 17:31N 41°33' E 140°49'714.3
2018-Feb-16 17:00N 41°29' E 140°42'714.1
2018-Feb-16 16:30N 41°26' E 140°34'714.8
2018-Feb-16 16:00N 41°21' E 140°26'2713.8
2018-Feb-16 14:04N 40°60' E 140°05'813.4
2018-Feb-16 13:29N 40°53' E 139°60'  

Dump ship's entire track history